createdAt,value
2023-04-10T00:00:09.871Z,10.35
2023-04-10T00:02:39.713Z,9.13
2023-04-10T00:05:09.707Z,11.50
2023-04-10T00:07:38.130Z,9.18
2023-04-10T00:10:07.866Z,9.75
2023-04-10T00:12:38.201Z,9.18
2023-04-10T00:15:08.518Z,9.98
2023-04-10T00:17:36.884Z,9.15
2023-04-10T00:20:08.664Z,9.45
2023-04-10T00:22:37.066Z,8.73
2023-04-10T00:25:06.767Z,8.75
2023-04-10T00:27:35.214Z,8.80
2023-04-10T00:30:03.695Z,9.23
2023-04-10T00:32:32.141Z,9.95
2023-04-10T00:35:00.573Z,9.50
2023-04-10T00:37:30.246Z,10.93
2023-04-10T00:39:58.640Z,8.35
2023-04-10T00:42:27.117Z,8.52
2023-04-10T00:44:55.679Z,10.63
2023-04-10T00:47:24.188Z,8.90
2023-04-10T00:49:52.903Z,8.63
2023-04-10T00:52:21.900Z,9.43
2023-04-10T00:54:51.688Z,8.48
2023-04-10T00:57:20.183Z,8.15
2023-04-10T00:59:51.090Z,9.65
2023-04-10T01:02:20.334Z,9.02
2023-04-10T01:04:49.205Z,9.05
2023-04-10T01:07:31.341Z,8.77
2023-04-10T01:10:14.451Z,10.02
2023-04-10T01:13:01.024Z,8.15
2023-04-10T01:15:31.960Z,9.05
2023-04-10T01:18:08.028Z,10.07
2023-04-10T01:20:41.346Z,9.98
2023-04-10T01:23:38.876Z,10.05
2023-04-10T01:26:11.774Z,8.52
2023-04-10T01:29:01.744Z,9.98
2023-04-10T01:31:38.950Z,8.80
2023-04-10T01:34:12.948Z,9.00
2023-04-10T01:36:50.685Z,9.15
2023-04-10T01:39:22.291Z,8.63
2023-04-10T01:41:54.874Z,8.85
2023-04-10T01:44:29.174Z,8.23
2023-04-10T01:46:58.870Z,7.75
2023-04-10T01:49:29.715Z,8.52
2023-04-10T01:52:00.023Z,8.25
2023-04-10T01:54:29.968Z,8.75
2023-04-10T01:56:59.250Z,8.93
2023-04-10T01:59:29.526Z,8.55
2023-04-10T02:01:58.778Z,8.48
2023-04-10T02:04:27.766Z,8.25
2023-04-10T02:07:05.718Z,8.07
2023-04-10T02:09:46.923Z,8.95
2023-04-10T02:12:23.504Z,9.15
2023-04-10T02:14:56.802Z,8.38
2023-04-10T02:17:29.977Z,8.68
2023-04-10T02:19:59.830Z,9.48
2023-04-10T02:22:28.760Z,8.05
2023-04-10T02:24:58.445Z,9.80
2023-04-10T02:27:31.607Z,9.05
2023-04-10T02:30:02.531Z,8.63
2023-04-10T02:32:31.772Z,8.10
2023-04-10T02:35:00.321Z,8.25
2023-04-10T02:37:28.770Z,9.43
2023-04-10T02:39:57.203Z,8.70
2023-04-10T02:42:25.598Z,8.25
2023-04-10T02:44:54.007Z,9.30
2023-04-10T02:47:23.998Z,8.88
2023-04-10T02:49:52.472Z,9.38
2023-04-10T02:52:20.828Z,10.18
2023-04-10T02:54:49.169Z,8.38
2023-04-10T02:57:17.992Z,8.88
2023-04-10T02:59:46.306Z,9.93
2023-04-10T03:02:14.857Z,8.65
2023-04-10T03:04:44.686Z,10.93
2023-04-10T03:07:13.210Z,8.80
2023-04-10T03:09:41.599Z,8.45
2023-04-10T03:12:09.977Z,10.02
2023-04-10T03:14:38.356Z,7.90
2023-04-10T03:17:07.490Z,8.85
2023-04-10T03:19:35.959Z,9.68
2023-04-10T03:22:05.647Z,8.73
2023-04-10T03:24:34.018Z,9.35
2023-04-10T03:27:02.383Z,9.05
2023-04-10T03:29:30.795Z,8.55
2023-04-10T03:31:59.190Z,9.18
2023-04-10T03:34:27.548Z,8.75
2023-04-10T03:36:56.045Z,8.85
2023-04-10T03:39:25.831Z,9.73
2023-04-10T03:41:54.269Z,9.07
2023-04-10T03:44:23.104Z,10.90
2023-04-10T03:46:51.626Z,10.10
2023-04-10T03:49:19.955Z,9.55
2023-04-10T03:51:48.408Z,8.52
2023-04-10T03:54:16.782Z,8.95
2023-04-10T03:56:46.607Z,8.40
2023-04-10T03:59:14.997Z,7.70
2023-04-10T04:01:43.424Z,9.05
2023-04-10T04:04:12.260Z,9.00
2023-04-10T04:06:40.936Z,9.68
2023-04-10T04:09:09.363Z,8.45
2023-04-10T04:11:38.587Z,9.00
2023-04-10T04:14:08.333Z,7.32
2023-04-10T04:16:36.793Z,8.90
2023-04-10T04:19:05.167Z,8.00
2023-04-10T04:21:33.491Z,8.93
2023-04-10T04:24:01.916Z,8.43
2023-04-10T04:26:30.407Z,8.52
2023-04-10T04:28:58.806Z,8.20
2023-04-10T04:31:32.527Z,8.38
2023-04-10T04:34:01.175Z,8.00
2023-04-10T04:36:29.749Z,7.85
2023-04-10T04:38:58.192Z,7.97
2023-04-10T04:41:26.521Z,6.65
2023-04-10T04:43:55.967Z,7.93
2023-04-10T04:46:24.626Z,8.10
2023-04-10T04:48:54.540Z,7.30
2023-04-10T04:51:24.061Z,9.35
2023-04-10T04:53:52.751Z,8.60
2023-04-10T04:56:21.530Z,7.30
2023-04-10T04:58:49.857Z,7.80
2023-04-10T05:01:18.943Z,7.60
2023-04-10T05:03:47.395Z,8.02
2023-04-10T05:06:18.719Z,8.57
2023-04-10T05:08:47.078Z,8.93
2023-04-10T05:11:15.686Z,7.78
2023-04-10T05:13:44.037Z,7.95
2023-04-10T05:16:12.447Z,7.63
2023-04-10T05:18:42.855Z,7.28
2023-04-10T05:21:11.286Z,8.20
2023-04-10T05:23:40.988Z,9.15
2023-04-10T05:26:09.422Z,9.57
2023-04-10T05:28:38.031Z,7.75
2023-04-10T05:31:07.178Z,7.30
2023-04-10T05:33:35.737Z,7.72
2023-04-10T05:36:05.529Z,7.40
2023-04-10T05:38:34.130Z,9.43
2023-04-10T05:41:03.923Z,8.68
2023-04-10T05:43:32.341Z,8.68
2023-04-10T05:46:00.793Z,8.60
2023-04-10T05:48:29.261Z,7.63
2023-04-10T05:50:57.625Z,9.85
2023-04-10T05:53:32.151Z,9.15
2023-04-10T05:56:02.023Z,9.15
2023-04-10T05:58:32.022Z,8.90
2023-04-10T06:01:00.333Z,10.05
2023-04-10T06:03:30.780Z,9.07
2023-04-10T06:06:02.561Z,9.88
2023-04-10T06:08:31.139Z,10.57
2023-04-10T06:10:59.505Z,10.50
2023-04-10T06:13:28.183Z,10.05
2023-04-10T06:15:57.976Z,11.77
2023-04-10T06:18:26.454Z,10.50
2023-04-10T06:20:56.752Z,9.82
2023-04-10T06:23:25.154Z,11.10
2023-04-10T06:25:53.534Z,10.43
2023-04-10T06:28:21.977Z,10.98
2023-04-10T06:30:50.351Z,10.63
2023-04-10T06:33:20.097Z,10.57
2023-04-10T06:35:48.453Z,10.75
2023-04-10T06:38:16.920Z,12.20
2023-04-10T06:40:45.352Z,12.52
2023-04-10T06:43:13.779Z,12.85
2023-04-10T06:45:42.719Z,12.15
2023-04-10T06:48:11.221Z,10.55
2023-04-10T06:50:41.168Z,12.02
2023-04-10T06:53:09.608Z,11.55
2023-04-10T06:55:38.483Z,12.32
2023-04-10T06:58:06.913Z,12.68
2023-04-10T07:00:35.323Z,11.13
2023-04-10T07:03:03.729Z,11.82
2023-04-10T07:05:32.236Z,11.65
2023-04-10T07:08:02.101Z,12.57
2023-04-10T07:10:30.592Z,12.18
2023-04-10T07:12:58.939Z,13.75
2023-04-10T07:15:27.357Z,13.25
2023-04-10T07:17:56.411Z,13.27
2023-04-10T07:20:24.963Z,12.68
2023-04-10T07:22:53.407Z,12.38
2023-04-10T07:25:23.356Z,13.30
2023-04-10T07:27:51.760Z,11.95
2023-04-10T07:30:21.097Z,12.75
2023-04-10T07:32:50.169Z,12.38
2023-04-10T07:35:18.934Z,12.57
2023-04-10T07:37:51.590Z,11.95
2023-04-10T07:40:20.498Z,14.68
2023-04-10T07:42:52.031Z,13.30
2023-04-10T07:45:22.106Z,13.57
2023-04-10T07:47:50.429Z,13.80
2023-04-10T07:50:18.875Z,12.55
2023-04-10T07:52:49.838Z,12.18
2023-04-10T07:55:18.463Z,14.57
2023-04-10T07:57:46.846Z,13.55
2023-04-10T08:00:18.697Z,14.57
2023-04-10T08:02:47.203Z,13.55
2023-04-10T08:05:15.799Z,13.88
2023-04-10T08:07:44.149Z,14.63
2023-04-10T08:10:13.270Z,14.95
2023-04-10T08:12:41.644Z,14.68
2023-04-10T08:15:11.110Z,14.63
2023-04-10T08:17:40.824Z,14.38
2023-04-10T08:20:11.730Z,13.57
2023-04-10T08:22:40.216Z,14.20
2023-04-10T08:25:09.307Z,14.38
2023-04-10T08:27:37.970Z,16.20
2023-04-10T08:30:08.138Z,15.07
2023-04-10T08:32:37.019Z,14.43
2023-04-10T08:35:08.171Z,16.10
2023-04-10T08:37:37.103Z,16.60
2023-04-10T08:40:06.742Z,14.25
2023-04-10T08:42:35.752Z,15.85
2023-04-10T08:45:05.270Z,15.27
2023-04-10T08:47:37.968Z,16.10
2023-04-10T08:50:12.244Z,16.58
2023-04-10T08:52:45.038Z,16.52
2023-04-10T08:55:15.760Z,16.77
2023-04-10T08:57:50.941Z,15.70
2023-04-10T09:00:26.984Z,17.33
2023-04-10T09:05:47.829Z,17.60
2023-04-10T09:08:17.039Z,18.55
2023-04-10T09:10:46.024Z,17.40
2023-04-10T09:13:14.409Z,17.63
2023-04-10T09:15:58.349Z,16.02
2023-04-10T09:18:47.226Z,17.90
2023-04-10T09:21:20.103Z,17.63
2023-04-10T09:23:49.987Z,17.13
2023-04-10T09:26:29.207Z,18.42
2023-04-10T09:29:03.509Z,17.98
2023-04-10T09:31:35.127Z,16.23
2023-04-10T09:34:13.468Z,19.10
2023-04-10T09:36:44.384Z,15.95
2023-04-10T09:39:13.905Z,16.30
2023-04-10T09:41:53.092Z,18.30
2023-04-10T09:44:31.849Z,18.00
2023-04-10T09:47:00.766Z,16.50
2023-04-10T09:49:29.158Z,16.67
2023-04-10T09:51:58.907Z,16.38
2023-04-10T09:54:38.461Z,16.55
2023-04-10T09:57:08.367Z,17.83
2023-04-10T09:59:42.937Z,17.23
2023-04-10T10:02:12.677Z,17.90
2023-04-10T10:04:42.500Z,15.70
2023-04-10T10:07:12.339Z,16.10
2023-04-10T10:09:42.044Z,18.35
2023-04-10T10:12:11.883Z,16.00
2023-04-10T10:14:55.483Z,16.27
2023-04-10T10:17:30.357Z,17.52
2023-04-10T10:20:05.919Z,16.10
2023-04-10T10:22:36.263Z,16.92
2023-04-10T10:25:05.557Z,16.45
2023-04-10T10:27:37.770Z,14.45
2023-04-10T10:30:25.470Z,15.45
2023-04-10T10:32:59.483Z,15.93
2023-04-10T10:35:29.961Z,15.90
2023-04-10T10:38:01.353Z,17.90
2023-04-10T10:40:34.211Z,13.45
2023-04-10T10:43:14.740Z,16.90
2023-04-10T10:46:02.179Z,15.30
2023-04-10T10:48:30.716Z,17.73
2023-04-10T10:51:01.762Z,16.73
2023-04-10T10:53:40.564Z,15.82
2023-04-10T10:56:42.347Z,16.63
2023-04-10T10:59:11.665Z,17.20
2023-04-10T11:02:00.233Z,15.23
2023-04-10T11:04:45.127Z,15.18
2023-04-10T11:07:14.161Z,15.63
2023-04-10T11:09:49.504Z,16.60
2023-04-10T11:12:18.451Z,16.27
2023-04-10T11:14:57.654Z,13.60
2023-04-10T11:17:48.998Z,15.07
2023-04-10T11:20:17.968Z,18.65
2023-04-10T11:23:12.271Z,17.55
2023-04-10T11:25:53.692Z,15.15
2023-04-10T11:28:38.779Z,16.25
2023-04-10T11:31:19.766Z,15.05
2023-04-10T11:33:50.042Z,15.52
2023-04-10T11:36:19.094Z,15.60
2023-04-10T11:38:57.203Z,14.30
2023-04-10T11:41:32.023Z,16.05
2023-04-10T11:44:01.611Z,14.63
2023-04-10T11:46:31.022Z,14.23
2023-04-10T11:49:02.838Z,15.35
2023-04-10T11:51:32.641Z,14.40
2023-04-10T11:54:09.202Z,15.45
2023-04-10T11:56:41.047Z,16.58
2023-04-10T11:59:11.422Z,15.55
2023-04-10T12:01:42.711Z,15.02
2023-04-10T12:04:19.634Z,15.27
2023-04-10T12:06:49.681Z,13.30
2023-04-10T12:09:20.644Z,15.07
2023-04-10T12:11:59.453Z,12.13
2023-04-10T12:14:33.177Z,13.13
2023-04-10T12:17:02.563Z,12.50
2023-04-10T12:19:32.013Z,14.23
2023-04-10T12:22:02.025Z,13.93
2023-04-10T12:24:44.423Z,13.15
2023-04-10T12:27:19.230Z,12.45
2023-04-10T12:29:48.608Z,13.80
2023-04-10T12:32:17.587Z,14.93
2023-04-10T12:34:52.656Z,14.82
2023-04-10T12:37:21.248Z,14.50
2023-04-10T12:39:49.973Z,12.13
2023-04-10T12:42:22.466Z,11.75
2023-04-10T12:44:55.774Z,11.52
2023-04-10T12:47:25.293Z,11.75
2023-04-10T12:50:11.405Z,13.95
2023-04-10T12:52:42.267Z,13.48
2023-04-10T12:55:14.636Z,13.60
2023-04-10T12:57:46.122Z,13.55
2023-04-10T13:00:17.561Z,12.93
2023-04-10T13:02:46.950Z,12.95
2023-04-10T13:05:16.052Z,10.48
2023-04-10T13:07:44.485Z,13.40
2023-04-10T13:10:13.163Z,13.10
2023-04-10T13:12:44.323Z,14.20
2023-04-10T13:15:12.652Z,13.13
2023-04-10T13:17:41.935Z,12.35
2023-04-10T13:20:13.449Z,12.18
2023-04-10T13:22:41.830Z,12.05
2023-04-10T13:25:10.980Z,12.68
2023-04-10T13:27:39.359Z,11.95
2023-04-10T13:30:13.219Z,11.68
2023-04-10T13:32:42.181Z,12.55
2023-04-10T13:35:11.124Z,12.75
2023-04-10T13:37:39.536Z,10.77
2023-04-10T13:40:10.136Z,13.57
2023-04-10T13:42:41.263Z,13.25
2023-04-10T13:45:13.247Z,13.52
2023-04-10T13:47:41.616Z,14.45
2023-04-10T13:50:11.487Z,14.55
2023-04-10T13:52:39.925Z,14.13
2023-04-10T13:55:09.965Z,13.40
2023-04-10T13:57:38.442Z,11.90
2023-04-10T14:00:10.314Z,12.75
2023-04-10T14:02:40.186Z,12.45
2023-04-10T14:05:10.313Z,13.35
2023-04-10T14:07:38.712Z,14.23
2023-04-10T14:10:09.618Z,11.88
2023-04-10T14:12:38.097Z,14.43
2023-04-10T14:15:08.329Z,16.00
2023-04-10T14:17:36.675Z,13.50
2023-04-10T14:20:11.354Z,11.68
2023-04-10T14:22:39.668Z,12.63
2023-04-10T14:25:13.541Z,12.55
2023-04-10T14:27:42.352Z,13.15
2023-04-10T14:30:11.922Z,14.98
2023-04-10T14:32:40.774Z,14.80
2023-04-10T14:35:12.054Z,12.45
2023-04-10T14:37:40.711Z,13.13
2023-04-10T14:40:11.000Z,13.10
2023-04-10T14:42:39.315Z,13.45
2023-04-10T14:45:09.468Z,13.38
2023-04-10T14:47:37.907Z,12.95
2023-04-10T14:50:08.163Z,13.88
2023-04-10T14:52:38.005Z,13.25
2023-04-10T14:55:07.588Z,14.15
2023-04-10T14:57:36.177Z,14.52
2023-04-10T15:00:04.971Z,16.27
2023-04-10T15:02:33.425Z,14.25
2023-04-10T15:05:01.982Z,14.27
2023-04-10T15:07:30.316Z,13.88
2023-04-10T15:10:00.640Z,13.77
2023-04-10T15:12:29.254Z,12.02
2023-04-10T15:14:57.625Z,11.93
2023-04-10T15:17:26.151Z,12.32
2023-04-10T15:19:54.585Z,14.05
2023-04-10T15:22:23.151Z,14.75
2023-04-10T15:24:51.583Z,13.02
2023-04-10T15:27:22.187Z,12.95
2023-04-10T15:29:50.811Z,12.25
2023-04-10T15:32:19.216Z,13.05
2023-04-10T15:34:47.626Z,14.30
2023-04-10T15:37:16.051Z,15.43
2023-04-10T15:39:44.425Z,16.10
2023-04-10T15:42:13.066Z,13.35
2023-04-10T15:44:42.788Z,13.90
2023-04-10T15:47:11.208Z,11.73
2023-04-10T15:49:39.561Z,13.30
2023-04-10T15:52:08.197Z,13.10
2023-04-10T15:54:37.064Z,12.73
2023-04-10T15:57:05.958Z,14.90
2023-04-10T15:59:35.955Z,13.85
2023-04-10T16:02:05.898Z,14.10
2023-04-10T16:04:35.235Z,12.18
2023-04-10T16:07:03.727Z,13.35
2023-04-10T16:09:32.170Z,13.38
2023-04-10T16:12:02.018Z,15.23
2023-04-10T16:14:30.442Z,14.93
2023-04-10T16:16:58.845Z,13.05
2023-04-10T16:19:31.615Z,12.90
2023-04-10T16:22:00.042Z,12.75
2023-04-10T16:24:28.496Z,14.35
2023-04-10T16:26:56.820Z,11.68
2023-04-10T16:29:25.259Z,14.95
2023-04-10T16:31:53.724Z,16.20
2023-04-10T16:34:22.126Z,12.98
2023-04-10T16:36:51.920Z,12.68
2023-04-10T16:39:20.325Z,12.80
2023-04-10T16:41:48.643Z,12.40
2023-04-10T16:44:17.074Z,11.60
2023-04-10T16:46:45.581Z,14.15
2023-04-10T16:49:14.051Z,12.95
2023-04-10T16:51:42.467Z,11.52
2023-04-10T16:54:12.252Z,14.20
2023-04-10T16:56:40.687Z,12.82
2023-04-10T16:59:09.193Z,15.02
2023-04-10T17:01:39.803Z,16.65
2023-04-10T17:04:09.330Z,16.45
2023-04-10T17:06:37.883Z,13.48
2023-04-10T17:09:06.239Z,16.27
2023-04-10T17:11:36.008Z,16.90
2023-04-10T17:14:04.455Z,14.65
2023-04-10T17:16:33.014Z,16.67
2023-04-10T17:19:01.479Z,15.93
2023-04-10T17:21:30.216Z,15.48
2023-04-10T17:23:58.695Z,16.38
2023-04-10T17:26:27.256Z,16.45
2023-04-10T17:28:57.033Z,16.95
2023-04-10T17:31:25.551Z,16.23
2023-04-10T17:33:54.099Z,16.55
2023-04-10T17:36:22.586Z,16.05
2023-04-10T17:38:54.099Z,16.27
2023-04-10T17:41:22.843Z,16.02
2023-04-10T17:43:52.194Z,16.83
2023-04-10T17:46:22.620Z,15.98
2023-04-10T17:48:51.331Z,15.82
2023-04-10T17:51:19.769Z,16.75
2023-04-10T17:53:48.188Z,16.27
2023-04-10T17:56:20.867Z,15.32
2023-04-10T17:58:50.790Z,15.90
2023-04-10T18:01:25.868Z,18.70
2023-04-10T18:03:54.423Z,23.35
2023-04-10T18:06:23.126Z,30.38
2023-04-10T18:08:51.576Z,19.05
2023-04-10T18:11:20.008Z,21.33
2023-04-10T18:13:49.010Z,22.35
2023-04-10T18:16:18.452Z,21.83
2023-04-10T18:18:48.258Z,24.15
2023-04-10T18:21:16.954Z,27.23
2023-04-10T18:23:45.718Z,26.30
2023-04-10T18:26:14.232Z,25.77
2023-04-10T18:28:43.591Z,21.08
2023-04-10T18:31:14.813Z,19.48
2023-04-10T18:33:44.027Z,21.30
2023-04-10T18:36:14.187Z,21.63
2023-04-10T18:38:44.244Z,21.05
2023-04-10T18:41:13.154Z,19.55
2023-04-10T18:43:42.380Z,18.73
2023-04-10T18:46:14.081Z,18.58
2023-04-10T18:48:43.919Z,18.48
2023-04-10T18:51:14.474Z,17.58
2023-04-10T18:53:43.601Z,19.15
2023-04-10T18:56:12.366Z,19.58
2023-04-10T18:58:43.200Z,20.45
2023-04-10T19:01:12.561Z,18.33
2023-04-10T19:03:41.658Z,18.02
2023-04-10T19:06:11.282Z,18.45
2023-04-10T19:08:41.944Z,19.67
2023-04-10T19:11:12.034Z,18.33
2023-04-10T19:13:40.898Z,20.90
2023-04-10T19:16:14.462Z,17.13
2023-04-10T19:18:43.451Z,17.80
2023-04-10T19:21:13.251Z,18.10
2023-04-10T19:23:44.820Z,16.90
2023-04-10T19:26:14.308Z,19.75
2023-04-10T19:28:43.152Z,20.40
2023-04-10T19:31:12.166Z,20.17
2023-04-10T19:33:41.982Z,17.30
2023-04-10T19:36:11.317Z,19.42
2023-04-10T19:38:41.057Z,17.55
2023-04-10T19:41:17.136Z,19.02
2023-04-10T19:43:46.104Z,16.23
2023-04-10T19:46:19.098Z,19.60
2023-04-10T19:48:48.750Z,15.07
2023-04-10T19:51:17.826Z,16.42
2023-04-10T19:53:46.304Z,16.92
2023-04-10T19:56:17.086Z,16.70
2023-04-10T19:58:56.066Z,13.15
2023-04-10T20:01:24.797Z,14.95
2023-04-10T20:03:53.326Z,17.30
2023-04-10T20:06:22.587Z,17.30
2023-04-10T20:08:51.018Z,18.98
2023-04-10T20:11:20.739Z,15.05
2023-04-10T20:13:49.120Z,20.10
2023-04-10T20:16:17.686Z,16.52
2023-04-10T20:18:46.091Z,14.80
2023-04-10T20:21:14.423Z,16.15
2023-04-10T20:23:42.778Z,15.15
2023-04-10T20:26:12.736Z,15.65
2023-04-10T20:28:42.562Z,16.02
2023-04-10T20:31:13.200Z,15.15
2023-04-10T20:33:41.900Z,15.43
2023-04-10T20:36:11.079Z,15.27
2023-04-10T20:38:39.563Z,16.63
2023-04-10T20:41:08.074Z,18.30
2023-04-10T20:43:36.491Z,15.13
2023-04-10T20:46:09.085Z,16.00
2023-04-10T20:48:38.431Z,17.00
2023-04-10T20:51:07.793Z,18.85
2023-04-10T20:53:36.197Z,17.60
2023-04-10T20:56:06.354Z,17.60
2023-04-10T20:58:34.833Z,15.30
2023-04-10T21:01:03.285Z,15.15
2023-04-10T21:03:33.225Z,15.68
2023-04-10T21:06:04.554Z,14.95
2023-04-10T21:08:33.101Z,14.30
2023-04-10T21:11:01.509Z,16.75
2023-04-10T21:13:29.966Z,15.75
2023-04-10T21:15:58.392Z,14.63
2023-04-10T21:18:26.818Z,15.30
2023-04-10T21:20:56.599Z,16.15
2023-04-10T21:23:25.041Z,15.05
2023-04-10T21:25:54.135Z,13.07
2023-04-10T21:28:22.670Z,18.52
2023-04-10T21:30:51.080Z,15.82
2023-04-10T21:33:19.546Z,15.45
2023-04-10T21:35:48.151Z,16.05
2023-04-10T21:38:17.857Z,13.65
2023-04-10T21:40:52.353Z,15.00
2023-04-10T21:43:20.977Z,14.88
2023-04-10T21:45:49.688Z,14.45
2023-04-10T21:48:19.589Z,14.35
2023-04-10T21:50:48.149Z,16.25
2023-04-10T21:53:17.883Z,15.55
2023-04-10T21:55:46.376Z,15.35
2023-04-10T21:58:14.751Z,13.60
2023-04-10T22:00:47.026Z,13.85
2023-04-10T22:03:17.206Z,16.63
2023-04-10T22:05:45.986Z,14.40
2023-04-10T22:08:15.035Z,16.25
2023-04-10T22:10:45.623Z,15.32
2023-04-10T22:13:27.493Z,13.30
2023-04-10T22:15:58.589Z,15.75
2023-04-10T22:18:27.113Z,15.20
2023-04-10T22:20:55.494Z,14.43
2023-04-10T22:23:24.258Z,15.80
2023-04-10T22:25:53.946Z,14.52
2023-04-10T22:28:22.228Z,14.55
2023-04-10T22:30:50.846Z,13.93
2023-04-10T22:33:19.227Z,14.57
2023-04-10T22:35:47.651Z,14.55
2023-04-10T22:38:16.222Z,14.02
2023-04-10T22:40:44.584Z,14.48
2023-04-10T22:43:14.314Z,11.80
2023-04-10T22:45:43.311Z,13.63
2023-04-10T22:48:11.771Z,13.60
2023-04-10T22:50:40.165Z,12.48
2023-04-10T22:53:08.576Z,14.60
2023-04-10T22:55:39.247Z,15.25
2023-04-10T22:58:08.329Z,15.73
2023-04-10T23:00:38.080Z,14.13
2023-04-10T23:03:06.490Z,14.40
2023-04-10T23:05:34.908Z,14.25
2023-04-10T23:08:03.233Z,15.07
2023-04-10T23:10:31.672Z,13.70
2023-04-10T23:12:59.984Z,13.82
2023-04-10T23:15:28.367Z,12.40
2023-04-10T23:17:58.169Z,12.20
2023-04-10T23:20:27.004Z,13.43
2023-04-10T23:22:57.233Z,14.70
2023-04-10T23:25:25.878Z,13.00
2023-04-10T23:27:54.207Z,12.27
2023-04-10T23:30:22.791Z,13.30
2023-04-10T23:32:51.174Z,13.25
2023-04-10T23:35:20.993Z,13.77
2023-04-10T23:37:51.177Z,13.10
2023-04-10T23:40:20.356Z,14.10
2023-04-10T23:42:48.956Z,21.08
2023-04-10T23:45:17.527Z,14.63
2023-04-10T23:47:46.008Z,14.00
2023-04-10T23:50:14.348Z,13.52
2023-04-10T23:52:48.497Z,13.43
2023-04-10T23:55:17.022Z,13.60
2023-04-10T23:57:45.764Z,14.73
